createdAt,value
2023-05-09T00:02:17.730Z,79.39
2023-05-09T00:06:09.039Z,79.84
2023-05-09T00:10:06.684Z,79.98
2023-05-09T00:14:05.587Z,79.63
2023-05-09T00:18:03.664Z,79.75
2023-05-09T00:22:01.634Z,79.43
2023-05-09T00:25:59.617Z,79.65
2023-05-09T00:29:57.590Z,79.36
2023-05-09T00:33:55.600Z,79.57
2023-05-09T00:37:53.566Z,80.83
2023-05-09T00:41:51.621Z,80.45
2023-05-09T00:45:49.584Z,79.83
2023-05-09T00:49:47.569Z,79.40
2023-05-09T00:53:45.524Z,79.22
2023-05-09T00:57:43.531Z,78.90
2023-05-09T01:01:41.583Z,78.68
2023-05-09T01:05:47.633Z,78.63
2023-05-09T01:10:25.534Z,78.59
2023-05-09T01:15:16.733Z,78.58
2023-05-09T01:19:56.552Z,78.60
2023-05-09T01:24:00.504Z,78.61
2023-05-09T01:28:35.506Z,78.43
2023-05-09T01:32:41.532Z,78.61
2023-05-09T01:36:42.501Z,79.12
2023-05-09T01:40:44.504Z,79.38
2023-05-09T01:44:49.431Z,79.53
2023-05-09T01:48:50.479Z,79.63
2023-05-09T01:52:50.480Z,79.41
2023-05-09T01:56:50.484Z,79.23
2023-05-09T02:00:49.530Z,79.21
2023-05-09T02:04:48.446Z,79.17
2023-05-09T02:08:47.396Z,79.18
2023-05-09T02:12:45.607Z,79.15
2023-05-09T02:16:43.476Z,79.12
2023-05-09T02:20:42.472Z,79.24
2023-05-09T02:24:41.388Z,79.18
2023-05-09T02:28:41.439Z,79.21
2023-05-09T02:32:43.418Z,79.55
2023-05-09T02:36:42.413Z,79.60
2023-05-09T02:40:42.406Z,79.52
2023-05-09T02:44:40.385Z,79.65
2023-05-09T02:48:40.375Z,79.46
2023-05-09T02:52:38.404Z,79.36
2023-05-09T02:56:36.382Z,79.33
2023-05-09T03:00:34.400Z,79.24
2023-05-09T03:04:32.448Z,79.00
2023-05-09T03:08:30.376Z,79.25
2023-05-09T03:12:28.363Z,79.43
2023-05-09T03:16:31.488Z,79.59
2023-05-09T03:20:30.353Z,79.72
2023-05-09T03:24:28.361Z,79.92
2023-05-09T03:28:26.301Z,80.21
2023-05-09T03:32:26.427Z,80.41
2023-05-09T03:36:24.363Z,78.23
2023-05-09T03:40:22.343Z,71.22
2023-05-09T03:44:28.332Z,62.49
2023-05-09T03:48:26.312Z,56.57
2023-05-09T03:52:24.295Z,50.00
2023-05-09T03:56:22.317Z,43.95
2023-05-09T04:00:20.301Z,38.81
2023-05-09T04:04:23.324Z,34.77
2023-05-09T04:08:21.244Z,31.47
2023-05-09T04:12:19.320Z,28.61
2023-05-09T04:16:17.332Z,26.24
2023-05-09T04:20:15.363Z,25.69
2023-05-09T04:24:13.296Z,25.12
2023-05-09T04:28:12.273Z,26.00
2023-05-09T04:32:10.432Z,26.63
2023-05-09T04:36:08.353Z,26.88
2023-05-09T04:40:06.260Z,27.60
2023-05-09T04:44:08.335Z,28.45
2023-05-09T04:48:07.378Z,30.44
2023-05-09T04:52:06.286Z,32.35
2023-05-09T04:56:04.264Z,33.76
2023-05-09T05:00:02.264Z,34.18
2023-05-09T05:04:00.285Z,34.25
2023-05-09T05:07:58.228Z,34.37
2023-05-09T05:12:02.404Z,36.53
2023-05-09T05:16:03.253Z,41.42
2023-05-09T05:20:01.195Z,45.67
2023-05-09T05:23:59.398Z,47.73
2023-05-09T05:27:57.242Z,49.26
2023-05-09T05:31:55.225Z,51.28
2023-05-09T05:35:53.235Z,51.28
2023-05-09T05:39:51.193Z,51.23
2023-05-09T05:43:49.278Z,50.03
2023-05-09T05:47:48.312Z,50.01
2023-05-09T05:51:47.154Z,49.44
2023-05-09T05:55:46.219Z,49.68
2023-05-09T05:59:39.708Z,50.44
2023-05-09T06:03:04.393Z,50.26
2023-05-09T06:06:51.804Z,50.23
2023-05-09T06:10:16.051Z,49.84
2023-05-09T06:13:41.080Z,48.30
2023-05-09T06:17:05.860Z,48.71
2023-05-09T06:20:29.898Z,48.80
2023-05-09T06:27:20.579Z,49.81
2023-05-09T06:30:44.462Z,49.72
2023-05-09T06:34:09.178Z,50.00
2023-05-09T06:37:36.109Z,50.61
2023-05-09T06:40:59.955Z,50.50
2023-05-09T06:44:23.834Z,51.64
2023-05-09T06:47:47.710Z,50.28
2023-05-09T06:51:11.614Z,50.08
2023-05-09T06:54:35.513Z,50.51
2023-05-09T06:57:59.500Z,50.83
2023-05-09T07:01:23.367Z,50.10
2023-05-09T07:04:47.311Z,48.70
2023-05-09T07:08:11.141Z,48.18
2023-05-09T07:11:36.967Z,46.17
2023-05-09T07:15:01.114Z,45.06
2023-05-09T07:18:24.890Z,45.01
2023-05-09T07:21:48.821Z,44.91
2023-05-09T07:25:12.809Z,44.91
2023-05-09T07:28:36.717Z,44.27
2023-05-09T07:32:00.834Z,42.68
2023-05-09T07:35:24.848Z,41.38
2023-05-09T07:38:50.650Z,42.97
2023-05-09T07:42:16.095Z,42.44
2023-05-09T07:45:39.872Z,41.30
2023-05-09T07:49:03.718Z,41.26
2023-05-09T07:52:27.584Z,41.08
2023-05-09T07:55:51.480Z,40.20
2023-05-09T07:59:15.542Z,39.80
2023-05-09T08:02:39.531Z,39.32
2023-05-09T08:06:04.310Z,37.05
2023-05-09T08:09:28.285Z,37.31
2023-05-09T08:12:52.490Z,36.45
2023-05-09T08:16:17.686Z,35.32
2023-05-09T08:19:41.697Z,36.24
2023-05-09T08:23:05.834Z,36.50
2023-05-09T08:26:29.755Z,35.95
2023-05-09T08:29:53.684Z,36.63
2023-05-09T08:33:17.594Z,36.34
2023-05-09T08:36:41.414Z,37.01
2023-05-09T08:40:07.556Z,36.01
2023-05-09T08:43:34.378Z,37.04
2023-05-09T08:47:01.397Z,35.60
2023-05-09T08:50:26.288Z,34.11
2023-05-09T08:53:50.319Z,34.12
2023-05-09T08:57:15.741Z,35.07
2023-05-09T09:00:40.717Z,34.31
2023-05-09T09:04:09.182Z,35.14
2023-05-09T09:07:36.664Z,33.40
2023-05-09T09:11:00.566Z,33.62
2023-05-09T09:14:26.680Z,33.34
2023-05-09T09:17:52.283Z,34.08
2023-05-09T09:21:16.934Z,34.90
2023-05-09T09:24:40.906Z,35.60
2023-05-09T09:28:06.331Z,35.85
2023-05-09T09:31:33.310Z,35.46
2023-05-09T09:35:07.134Z,33.73
2023-05-09T09:38:43.970Z,33.81
2023-05-09T09:42:13.753Z,33.75
2023-05-09T09:45:38.345Z,33.88
2023-05-09T09:49:02.585Z,34.37
2023-05-09T09:52:27.151Z,34.04
2023-05-09T09:55:52.372Z,34.28
2023-05-09T09:59:18.526Z,34.46
2023-05-09T10:03:00.055Z,34.73
2023-05-09T10:06:24.051Z,33.86
2023-05-09T10:09:49.564Z,34.81
2023-05-09T10:13:13.649Z,35.22
2023-05-09T10:16:43.633Z,34.74
2023-05-09T10:20:09.608Z,34.51
2023-05-09T10:23:39.410Z,33.44
2023-05-09T10:27:07.191Z,34.32
2023-05-09T10:30:38.758Z,34.40
2023-05-09T10:34:10.301Z,34.63
2023-05-09T10:37:34.935Z,34.06
2023-05-09T10:40:59.737Z,33.59
2023-05-09T10:44:26.315Z,32.90
2023-05-09T10:47:53.012Z,32.79
2023-05-09T10:51:18.513Z,32.47
2023-05-09T10:54:42.632Z,32.85
2023-05-09T10:58:33.741Z,33.10
2023-05-09T11:02:01.082Z,32.40
2023-05-09T11:05:25.116Z,32.68
2023-05-09T11:08:49.075Z,32.45
2023-05-09T11:12:15.269Z,33.83
2023-05-09T11:15:52.610Z,33.91
2023-05-09T11:19:35.242Z,33.78
2023-05-09T11:23:00.175Z,32.71
2023-05-09T11:26:29.804Z,32.00
2023-05-09T11:29:55.740Z,32.20
2023-05-09T11:33:30.312Z,33.25
2023-05-09T11:37:08.811Z,34.28
2023-05-09T11:40:34.715Z,34.12
2023-05-09T11:44:00.393Z,33.87
2023-05-09T11:47:24.827Z,33.72
2023-05-09T11:50:49.647Z,32.87
2023-05-09T11:54:15.078Z,33.62
2023-05-09T11:57:42.992Z,31.23
2023-05-09T12:01:08.436Z,32.83
2023-05-09T12:04:34.085Z,33.14
2023-05-09T12:08:04.537Z,32.24
2023-05-09T12:11:32.384Z,32.04
2023-05-09T12:14:56.355Z,31.81
2023-05-09T12:18:20.135Z,30.45
2023-05-09T12:21:44.023Z,30.47
2023-05-09T12:25:10.672Z,29.92
2023-05-09T12:28:35.765Z,30.35
2023-05-09T12:32:01.409Z,30.94
2023-05-09T12:35:25.670Z,29.95
2023-05-09T12:38:56.123Z,29.50
2023-05-09T12:42:20.258Z,28.25
2023-05-09T12:45:44.214Z,30.45
2023-05-09T12:49:20.988Z,29.55
2023-05-09T12:52:54.697Z,30.07
2023-05-09T12:56:25.809Z,29.47
2023-05-09T12:59:49.952Z,28.85
2023-05-09T13:03:25.453Z,29.04
2023-05-09T13:06:51.475Z,28.77
2023-05-09T13:10:18.596Z,29.16
2023-05-09T13:13:43.025Z,29.09
2023-05-09T13:17:06.964Z,28.39
2023-05-09T13:20:30.856Z,29.89
2023-05-09T13:23:54.941Z,30.49
2023-05-09T13:27:18.842Z,30.69
2023-05-09T13:31:02.941Z,31.84
2023-05-09T13:35:00.728Z,31.05
2023-05-09T13:38:58.889Z,30.30
2023-05-09T13:42:56.729Z,30.22
2023-05-09T13:46:54.728Z,30.73
2023-05-09T13:50:52.747Z,29.40
2023-05-09T13:54:50.726Z,29.22
2023-05-09T13:58:48.818Z,29.98
2023-05-09T14:02:26.544Z,29.89
2023-05-09T14:05:50.614Z,28.46
2023-05-09T14:09:15.323Z,28.75
2023-05-09T14:12:40.668Z,27.83
2023-05-09T14:16:05.273Z,28.11
2023-05-09T14:19:30.232Z,28.37
2023-05-09T14:22:55.236Z,29.03
2023-05-09T14:26:19.241Z,28.11
2023-05-09T14:29:43.599Z,28.03
2023-05-09T14:33:08.093Z,27.98
2023-05-09T14:36:32.556Z,27.88
2023-05-09T14:39:56.413Z,28.54
2023-05-09T14:43:21.628Z,27.60
2023-05-09T14:46:45.661Z,27.54
2023-05-09T14:50:11.437Z,27.34
2023-05-09T14:53:35.517Z,27.96
2023-05-09T14:56:59.670Z,27.79
2023-05-09T15:00:25.851Z,27.58
2023-05-09T15:03:49.896Z,28.49
2023-05-09T15:07:14.071Z,28.86
2023-05-09T15:10:38.024Z,28.52
2023-05-09T15:14:01.971Z,28.31
2023-05-09T15:17:26.614Z,27.71
2023-05-09T15:20:52.127Z,27.38
2023-05-09T15:24:16.378Z,26.71
2023-05-09T15:27:40.599Z,26.75
2023-05-09T15:31:04.545Z,26.93
2023-05-09T15:34:28.369Z,25.61
2023-05-09T15:37:52.391Z,25.74
2023-05-09T15:41:17.094Z,26.03
2023-05-09T15:44:41.669Z,25.55
2023-05-09T15:48:05.840Z,25.79
2023-05-09T15:51:31.142Z,25.50
2023-05-09T15:54:56.678Z,24.98
2023-05-09T15:58:20.595Z,25.08
2023-05-09T16:01:44.780Z,25.41
2023-05-09T16:05:09.721Z,25.33
2023-05-09T16:08:33.494Z,25.70
2023-05-09T16:11:57.393Z,26.00
2023-05-09T16:15:21.216Z,26.58
2023-05-09T16:18:45.111Z,27.03
2023-05-09T16:22:09.019Z,27.18
2023-05-09T16:25:35.312Z,27.76
2023-05-09T16:28:59.392Z,28.06
2023-05-09T16:32:23.221Z,28.20
2023-05-09T16:35:48.430Z,28.21
2023-05-09T16:39:12.267Z,28.73
2023-05-09T16:42:36.057Z,29.09
2023-05-09T16:46:00.093Z,29.14
2023-05-09T16:49:24.700Z,29.58
2023-05-09T16:52:49.114Z,30.11
2023-05-09T16:56:12.995Z,30.12
2023-05-09T16:59:37.424Z,30.65
2023-05-09T17:03:01.661Z,30.59
2023-05-09T17:06:26.320Z,30.68
2023-05-09T17:09:50.125Z,30.77
2023-05-09T17:13:13.995Z,31.57
2023-05-09T17:16:38.350Z,31.94
2023-05-09T17:20:04.454Z,31.86
2023-05-09T17:23:28.415Z,32.00
2023-05-09T17:26:52.762Z,31.92
2023-05-09T17:30:17.945Z,32.30
2023-05-09T17:33:44.490Z,34.26
2023-05-09T17:37:09.222Z,34.21
2023-05-09T17:40:53.571Z,35.12
2023-05-09T17:44:51.478Z,34.87
2023-05-09T17:48:49.528Z,36.11
2023-05-09T17:52:47.524Z,36.22
2023-05-09T17:56:45.495Z,37.12
2023-05-09T18:00:43.452Z,36.96
2023-05-09T18:04:41.476Z,36.45
2023-05-09T18:08:39.510Z,36.72
2023-05-09T18:12:37.551Z,38.30
2023-05-09T18:16:35.598Z,38.19
2023-05-09T18:20:33.447Z,38.15
2023-05-09T18:24:31.468Z,39.08
2023-05-09T18:28:31.617Z,39.36
2023-05-09T18:32:29.582Z,39.63
2023-05-09T18:36:27.459Z,39.76
2023-05-09T18:40:25.420Z,39.64
2023-05-09T18:44:23.519Z,39.41
2023-05-09T18:48:21.433Z,40.25
2023-05-09T18:52:19.451Z,40.71
2023-05-09T18:56:17.424Z,39.89
2023-05-09T19:00:15.674Z,40.60
2023-05-09T19:04:13.520Z,40.84
2023-05-09T19:08:11.439Z,41.08
2023-05-09T19:12:11.417Z,40.94
2023-05-09T19:16:10.430Z,40.80
2023-05-09T19:20:09.449Z,41.44
2023-05-09T19:24:07.385Z,41.54
2023-05-09T19:28:05.430Z,42.12
2023-05-09T19:32:03.360Z,42.69
2023-05-09T19:36:01.380Z,41.61
2023-05-09T19:39:59.382Z,41.84
2023-05-09T19:43:58.362Z,42.69
2023-05-09T19:47:56.542Z,43.19
2023-05-09T19:51:54.485Z,44.11
2023-05-09T19:55:53.353Z,43.59
2023-05-09T19:59:51.341Z,44.71
2023-05-09T20:03:50.500Z,45.07
2023-05-09T20:07:48.349Z,45.60
2023-05-09T20:11:46.340Z,46.14
2023-05-09T20:15:51.362Z,46.56
2023-05-09T20:19:49.346Z,46.21
2023-05-09T20:23:47.365Z,47.08
2023-05-09T20:27:45.370Z,47.94
2023-05-09T20:31:43.417Z,48.32
2023-05-09T20:35:41.364Z,49.12
2023-05-09T20:39:39.307Z,49.13
2023-05-09T20:43:37.319Z,49.95
2023-05-09T20:47:35.313Z,50.64
2023-05-09T20:51:33.340Z,50.79
2023-05-09T20:55:31.292Z,50.39
2023-05-09T20:59:29.340Z,50.78
2023-05-09T21:03:28.321Z,49.61
2023-05-09T21:07:26.262Z,51.06
2023-05-09T21:11:24.229Z,51.31
2023-05-09T21:15:22.421Z,51.29
2023-05-09T21:19:21.248Z,50.83
2023-05-09T21:23:19.280Z,51.46
2023-05-09T21:27:17.236Z,51.77
2023-05-09T21:31:15.291Z,51.48
2023-05-09T21:35:46.268Z,51.53
2023-05-09T21:39:44.544Z,52.68
2023-05-09T21:43:42.246Z,52.74
2023-05-09T21:47:40.424Z,51.14
2023-05-09T21:51:38.257Z,52.64
2023-05-09T21:55:36.244Z,52.06
2023-05-09T21:59:34.175Z,50.51
2023-05-09T22:03:32.321Z,50.83
2023-05-09T22:07:30.165Z,50.88
2023-05-09T22:11:28.179Z,52.11
2023-05-09T22:15:26.213Z,52.56
2023-05-09T22:19:24.214Z,51.54
2023-05-09T22:23:22.260Z,52.05
2023-05-09T22:27:20.130Z,52.26
2023-05-09T22:31:20.194Z,52.00
2023-05-09T22:35:18.151Z,51.09
2023-05-09T22:39:16.221Z,51.10
2023-05-09T22:43:14.168Z,52.64
2023-05-09T22:47:14.137Z,52.20
2023-05-09T22:51:12.230Z,51.55
2023-05-09T22:55:10.129Z,51.78
2023-05-09T22:59:08.186Z,51.76
2023-05-09T23:03:07.187Z,51.07
2023-05-09T23:07:05.156Z,51.30
2023-05-09T23:11:03.130Z,51.68
2023-05-09T23:15:01.180Z,51.12
2023-05-09T23:18:59.084Z,50.94
2023-05-09T23:22:57.174Z,51.08
2023-05-09T23:26:55.086Z,51.24
2023-05-09T23:30:53.259Z,51.62
2023-05-09T23:34:51.147Z,51.18
2023-05-09T23:38:49.068Z,51.29
2023-05-09T23:42:47.098Z,51.72
2023-05-09T23:46:45.107Z,51.97
2023-05-09T23:50:43.060Z,52.59
2023-05-09T23:54:41.066Z,53.42
2023-05-09T23:58:39.046Z,52.98
